createdAt,value
2022-12-19T00:00:38.078Z,7.16
2022-12-19T00:01:38.220Z,7.55
2022-12-19T00:02:38.141Z,8.75
2022-12-19T00:03:38.194Z,9.34
2022-12-19T00:04:38.048Z,8.95
2022-12-19T00:05:38.018Z,8.75
2022-12-19T00:06:38.035Z,8.95
2022-12-19T00:07:39.025Z,8.15
2022-12-19T00:08:37.995Z,8.55
2022-12-19T00:09:38.086Z,9.34
2022-12-19T00:10:37.979Z,7.36
2022-12-19T00:11:37.964Z,8.15
2022-12-19T00:12:37.964Z,8.55
2022-12-19T00:13:41.101Z,7.36
2022-12-19T00:14:38.039Z,7.95
2022-12-19T00:15:37.926Z,8.15
2022-12-19T00:16:37.998Z,7.36
2022-12-19T00:17:37.914Z,8.75
2022-12-19T00:18:37.900Z,9.54
2022-12-19T00:19:37.915Z,7.95
2022-12-19T00:20:37.874Z,7.75
2022-12-19T00:21:37.866Z,7.95
2022-12-19T00:22:37.862Z,8.15
2022-12-19T00:23:37.937Z,7.16
2022-12-19T00:24:37.842Z,7.95
2022-12-19T00:25:38.737Z,7.75
2022-12-19T00:26:37.812Z,8.35
2022-12-19T00:27:37.834Z,7.55
2022-12-19T00:28:37.963Z,8.15
2022-12-19T00:29:37.827Z,9.15
2022-12-19T00:30:37.784Z,9.15
2022-12-19T00:31:37.988Z,7.16
2022-12-19T00:32:38.771Z,9.34
2022-12-19T00:33:40.675Z,8.75
2022-12-19T00:34:38.941Z,7.75
2022-12-19T00:35:37.720Z,7.95
2022-12-19T00:36:37.713Z,8.95
2022-12-19T00:37:38.460Z,8.75
2022-12-19T00:38:38.702Z,7.95
2022-12-19T00:39:37.682Z,7.75
2022-12-19T00:40:37.680Z,7.36
2022-12-19T00:41:37.681Z,8.15
2022-12-19T00:42:37.669Z,7.55
2022-12-19T00:43:37.648Z,8.15
2022-12-19T00:44:37.628Z,8.55
2022-12-19T00:45:37.702Z,9.15
2022-12-19T00:46:37.619Z,6.36
2022-12-19T00:47:37.621Z,8.55
2022-12-19T00:48:37.617Z,8.55
2022-12-19T00:49:37.586Z,8.15
2022-12-19T00:50:37.576Z,7.95
2022-12-19T00:51:37.586Z,8.15
2022-12-19T00:52:37.567Z,7.95
2022-12-19T00:53:37.539Z,8.15
2022-12-19T00:54:37.643Z,7.36
2022-12-19T00:55:37.536Z,8.15
2022-12-19T00:56:38.367Z,9.15
2022-12-19T00:57:37.496Z,9.15
2022-12-19T00:58:39.923Z,9.54
2022-12-19T00:59:37.498Z,8.15
2022-12-19T01:00:37.543Z,8.55
2022-12-19T01:01:37.653Z,8.55
2022-12-19T01:02:37.591Z,8.35
2022-12-19T01:03:37.475Z,8.15
2022-12-19T01:04:41.488Z,8.55
2022-12-19T01:05:37.435Z,7.36
2022-12-19T01:06:37.405Z,8.55
2022-12-19T01:07:37.397Z,8.75
2022-12-19T01:08:37.571Z,7.16
2022-12-19T01:09:37.424Z,9.74
2022-12-19T01:10:37.383Z,8.55
2022-12-19T01:11:37.374Z,10.34
2022-12-19T01:12:37.351Z,8.95
2022-12-19T01:13:37.425Z,8.95
2022-12-19T01:14:37.357Z,8.55
2022-12-19T01:15:37.313Z,8.95
2022-12-19T01:16:37.360Z,7.75
2022-12-19T01:17:44.642Z,8.75
2022-12-19T01:18:38.353Z,8.55
2022-12-19T01:19:43.374Z,9.94
2022-12-19T01:20:38.263Z,8.15
2022-12-19T01:21:37.260Z,8.15
2022-12-19T01:22:37.277Z,9.54
2022-12-19T01:23:37.269Z,7.95
2022-12-19T01:24:37.221Z,8.35
2022-12-19T01:25:37.231Z,8.55
2022-12-19T01:26:37.236Z,8.75
2022-12-19T01:27:37.190Z,8.95
2022-12-19T01:28:37.180Z,8.15
2022-12-19T01:29:52.353Z,8.75
2022-12-19T01:30:38.170Z,9.54
2022-12-19T01:31:37.287Z,9.74
2022-12-19T01:32:37.340Z,8.75
2022-12-19T01:33:37.147Z,7.75
2022-12-19T01:34:37.112Z,8.35
2022-12-19T01:35:37.136Z,8.55
2022-12-19T01:36:39.719Z,8.55
2022-12-19T01:37:37.128Z,8.75
2022-12-19T01:38:37.079Z,8.75
2022-12-19T01:39:37.070Z,8.55
2022-12-19T01:40:37.068Z,8.55
2022-12-19T01:41:37.068Z,9.15
2022-12-19T01:42:37.089Z,8.75
2022-12-19T01:43:37.066Z,9.54
2022-12-19T01:44:37.018Z,8.35
2022-12-19T01:45:43.594Z,8.95
2022-12-19T01:46:38.065Z,8.95
2022-12-19T01:47:36.996Z,9.15
2022-12-19T01:48:36.978Z,9.15
2022-12-19T01:49:36.993Z,8.75
2022-12-19T01:50:36.978Z,8.15
2022-12-19T01:51:36.946Z,8.35
2022-12-19T01:52:36.925Z,8.95
2022-12-19T01:53:37.982Z,7.95
2022-12-19T01:54:38.203Z,9.34
2022-12-19T01:55:36.920Z,9.74
2022-12-19T01:56:36.863Z,9.34
2022-12-19T01:57:36.852Z,8.75
2022-12-19T01:58:36.883Z,8.15
2022-12-19T01:59:36.848Z,8.15
2022-12-19T02:00:36.816Z,8.35
2022-12-19T02:01:37.299Z,8.15
2022-12-19T02:02:37.958Z,8.75
2022-12-19T02:03:36.780Z,8.35
2022-12-19T02:04:36.777Z,7.75
2022-12-19T02:05:36.779Z,9.15
2022-12-19T02:06:36.762Z,8.55
2022-12-19T02:07:36.752Z,9.34
2022-12-19T02:08:36.736Z,9.15
2022-12-19T02:09:36.744Z,4.57
2022-12-19T02:10:36.721Z,9.15
2022-12-19T02:11:36.719Z,9.15
2022-12-19T02:12:36.731Z,8.55
2022-12-19T02:13:36.723Z,9.34
2022-12-19T02:14:36.690Z,9.54
2022-12-19T02:15:36.702Z,8.35
2022-12-19T02:16:36.744Z,10.74
2022-12-19T02:17:36.664Z,8.75
2022-12-19T02:18:36.653Z,8.75
2022-12-19T02:19:36.633Z,10.14
2022-12-19T02:20:36.616Z,8.95
2022-12-19T02:21:36.625Z,8.95
2022-12-19T02:22:36.596Z,10.34
2022-12-19T02:23:36.584Z,8.55
2022-12-19T02:24:36.578Z,8.75
2022-12-19T02:25:36.597Z,8.75
2022-12-19T02:26:36.583Z,8.75
2022-12-19T02:27:40.405Z,8.95
2022-12-19T02:28:36.539Z,9.15
2022-12-19T02:29:36.537Z,7.75
2022-12-19T02:30:36.530Z,8.95
2022-12-19T02:31:36.561Z,8.75
2022-12-19T02:32:36.507Z,8.95
2022-12-19T02:33:36.651Z,9.54
2022-12-19T02:34:41.297Z,8.95
2022-12-19T02:35:37.527Z,9.15
2022-12-19T02:36:36.499Z,9.15
2022-12-19T02:37:36.450Z,9.54
2022-12-19T02:38:36.437Z,8.15
2022-12-19T02:39:36.438Z,9.15
2022-12-19T02:40:36.448Z,8.95
2022-12-19T02:41:36.412Z,8.35
2022-12-19T02:42:36.402Z,8.75
2022-12-19T02:43:36.393Z,8.55
2022-12-19T02:44:36.402Z,8.55
2022-12-19T02:45:36.428Z,8.15
2022-12-19T02:46:36.371Z,9.34
2022-12-19T02:47:36.374Z,8.15
2022-12-19T02:48:36.350Z,9.15
2022-12-19T02:49:36.338Z,9.74
2022-12-19T02:50:36.310Z,8.75
2022-12-19T02:51:36.308Z,9.74
2022-12-19T02:52:36.453Z,10.74
2022-12-19T02:53:36.300Z,9.34
2022-12-19T02:54:36.328Z,8.55
2022-12-19T02:55:36.283Z,7.75
2022-12-19T02:56:36.267Z,9.54
2022-12-19T02:57:36.274Z,9.15
2022-12-19T02:58:36.272Z,9.15
2022-12-19T02:59:36.231Z,9.15
2022-12-19T03:00:36.277Z,8.95
2022-12-19T03:01:36.373Z,9.15
2022-12-19T03:02:36.263Z,9.94
2022-12-19T03:03:36.210Z,8.15
2022-12-19T03:04:36.195Z,9.34
2022-12-19T03:05:36.186Z,8.55
2022-12-19T03:06:36.159Z,9.54
2022-12-19T03:07:36.168Z,7.95
2022-12-19T03:08:36.129Z,9.54
2022-12-19T03:09:36.139Z,9.54
2022-12-19T03:10:36.120Z,9.15
2022-12-19T03:11:36.116Z,8.75
2022-12-19T03:12:36.126Z,9.34
2022-12-19T03:13:36.090Z,9.34
2022-12-19T03:14:36.073Z,10.14
2022-12-19T03:15:36.070Z,9.15
2022-12-19T03:16:36.132Z,8.95
2022-12-19T03:17:36.060Z,8.35
2022-12-19T03:18:36.042Z,11.13
2022-12-19T03:19:36.044Z,9.34
2022-12-19T03:20:36.193Z,9.54
2022-12-19T03:21:36.024Z,9.34
2022-12-19T03:22:36.015Z,8.75
2022-12-19T03:23:35.995Z,9.54
2022-12-19T03:24:35.982Z,10.14
2022-12-19T03:25:36.034Z,10.34
2022-12-19T03:26:35.953Z,9.54
2022-12-19T03:27:35.961Z,9.74
2022-12-19T03:28:36.055Z,8.55
2022-12-19T03:29:35.931Z,9.74
2022-12-19T03:30:35.990Z,9.94
2022-12-19T03:31:35.908Z,9.94
2022-12-19T03:32:35.903Z,8.75
2022-12-19T03:33:35.882Z,9.54
2022-12-19T03:34:35.871Z,9.74
2022-12-19T03:35:35.863Z,9.15
2022-12-19T03:36:35.861Z,8.95
2022-12-19T03:37:35.856Z,8.75
2022-12-19T03:38:35.832Z,9.94
2022-12-19T03:39:35.867Z,9.15
2022-12-19T03:40:35.810Z,10.14
2022-12-19T03:41:35.811Z,9.15
2022-12-19T03:42:35.804Z,9.54
2022-12-19T03:43:35.898Z,10.14
2022-12-19T03:44:35.839Z,9.15
2022-12-19T03:45:35.764Z,9.34
2022-12-19T03:46:35.744Z,8.55
2022-12-19T03:47:35.746Z,9.74
2022-12-19T03:48:35.724Z,10.34
2022-12-19T03:49:35.725Z,9.94
2022-12-19T03:50:35.705Z,9.54
2022-12-19T03:51:35.716Z,9.54
2022-12-19T03:52:35.697Z,9.34
2022-12-19T03:53:35.674Z,9.74
2022-12-19T03:54:35.662Z,10.34
2022-12-19T03:55:35.674Z,9.94
2022-12-19T03:56:35.653Z,8.95
2022-12-19T03:57:35.655Z,9.94
2022-12-19T03:58:35.642Z,10.74
2022-12-19T03:59:35.628Z,8.55
2022-12-19T04:00:35.606Z,9.15
2022-12-19T04:01:35.772Z,9.34
2022-12-19T04:02:35.649Z,8.95
2022-12-19T04:03:35.631Z,8.75
2022-12-19T04:04:35.573Z,10.74
2022-12-19T04:05:35.561Z,9.34
2022-12-19T04:06:35.542Z,10.14
2022-12-19T04:07:35.544Z,9.34
2022-12-19T04:08:35.522Z,8.75
2022-12-19T04:09:35.536Z,10.34
2022-12-19T04:10:35.528Z,9.74
2022-12-19T04:11:35.523Z,9.94
2022-12-19T04:12:35.530Z,8.95
2022-12-19T04:13:35.480Z,9.74
2022-12-19T04:14:35.465Z,9.74
2022-12-19T04:15:35.512Z,9.15
2022-12-19T04:16:35.447Z,10.14
2022-12-19T04:17:35.448Z,10.34
2022-12-19T04:18:35.425Z,10.34
2022-12-19T04:19:39.799Z,9.94
2022-12-19T04:20:36.401Z,9.94
2022-12-19T04:21:35.393Z,9.34
2022-12-19T04:22:35.382Z,9.94
2022-12-19T04:23:35.375Z,9.94
2022-12-19T04:24:35.360Z,9.54
2022-12-19T04:25:35.353Z,9.54
2022-12-19T04:26:35.353Z,9.15
2022-12-19T04:27:35.355Z,9.74
2022-12-19T04:28:35.344Z,9.15
2022-12-19T04:29:35.302Z,8.95
2022-12-19T04:30:36.805Z,10.54
2022-12-19T04:31:35.352Z,9.74
2022-12-19T04:32:35.299Z,9.94
2022-12-19T04:33:35.257Z,10.74
2022-12-19T04:34:37.881Z,9.74
2022-12-19T04:35:36.239Z,8.55
2022-12-19T04:36:35.226Z,8.95
2022-12-19T04:37:35.220Z,9.94
2022-12-19T04:38:35.213Z,10.54
2022-12-19T04:39:35.188Z,9.74
2022-12-19T04:40:40.702Z,10.14
2022-12-19T04:41:36.187Z,9.94
2022-12-19T04:42:35.183Z,9.94
2022-12-19T04:43:35.156Z,9.34
2022-12-19T04:44:35.144Z,9.74
2022-12-19T04:45:35.126Z,10.14
2022-12-19T04:46:35.186Z,9.94
2022-12-19T04:47:35.133Z,9.74
2022-12-19T04:48:35.104Z,10.34
2022-12-19T04:49:35.089Z,10.74
2022-12-19T04:50:35.083Z,10.54
2022-12-19T04:51:35.065Z,10.14
2022-12-19T04:52:35.055Z,10.54
2022-12-19T04:53:35.043Z,10.14
2022-12-19T04:54:35.045Z,10.54
2022-12-19T04:55:35.018Z,11.93
2022-12-19T04:56:35.021Z,9.94
2022-12-19T04:57:35.014Z,9.94
2022-12-19T04:58:35.003Z,9.74
2022-12-19T04:59:34.979Z,10.54
2022-12-19T05:00:34.976Z,10.14
2022-12-19T05:01:35.024Z,9.74
2022-12-19T05:02:35.266Z,8.55
2022-12-19T05:03:35.021Z,10.14
2022-12-19T05:04:34.932Z,10.93
2022-12-19T05:05:34.914Z,10.54
2022-12-19T05:06:34.924Z,10.54
2022-12-19T05:07:34.902Z,9.74
2022-12-19T05:08:34.892Z,10.74
2022-12-19T05:09:34.873Z,9.94
2022-12-19T05:10:34.865Z,9.94
2022-12-19T05:11:34.860Z,11.33
2022-12-19T05:12:34.870Z,9.74
2022-12-19T05:13:34.840Z,9.94
2022-12-19T05:14:34.830Z,9.54
2022-12-19T05:15:34.845Z,9.94
2022-12-19T05:16:34.803Z,10.74
2022-12-19T05:17:34.799Z,10.34
2022-12-19T05:18:34.802Z,10.93
2022-12-19T05:19:34.770Z,9.34
2022-12-19T05:20:34.773Z,9.34
2022-12-19T05:21:34.760Z,10.14
2022-12-19T05:22:34.760Z,9.94
2022-12-19T05:23:34.799Z,10.54
2022-12-19T05:24:34.769Z,11.53
2022-12-19T05:25:34.699Z,10.54
2022-12-19T05:26:34.708Z,10.14
2022-12-19T05:27:34.682Z,10.14
2022-12-19T05:28:34.693Z,10.34
2022-12-19T05:29:34.677Z,11.13
2022-12-19T05:30:34.679Z,9.34
2022-12-19T05:31:34.701Z,9.74
2022-12-19T05:32:34.651Z,10.14
2022-12-19T05:33:34.623Z,10.34
2022-12-19T05:34:34.607Z,11.93
2022-12-19T05:35:34.605Z,9.74
2022-12-19T05:36:34.591Z,9.74
2022-12-19T05:37:34.573Z,9.54
2022-12-19T05:38:34.638Z,10.54
2022-12-19T05:39:34.543Z,11.33
2022-12-19T05:40:34.548Z,10.54
2022-12-19T05:41:34.534Z,9.94
2022-12-19T05:42:34.543Z,10.54
2022-12-19T05:43:34.502Z,11.13
2022-12-19T05:44:34.501Z,10.14
2022-12-19T05:45:34.481Z,10.14
2022-12-19T05:46:34.531Z,11.13
2022-12-19T05:47:34.484Z,9.94
2022-12-19T05:48:34.465Z,11.13
2022-12-19T05:49:34.455Z,11.13
2022-12-19T05:50:34.442Z,10.54
2022-12-19T05:51:34.423Z,10.34
2022-12-19T05:52:34.413Z,10.74
2022-12-19T05:53:34.444Z,9.15
2022-12-19T05:54:34.401Z,9.94
2022-12-19T05:55:34.370Z,9.74
2022-12-19T05:56:34.362Z,9.94
2022-12-19T05:57:34.353Z,10.93
2022-12-19T05:58:34.339Z,9.94
2022-12-19T05:59:34.338Z,10.34
2022-12-19T06:00:34.319Z,10.14
2022-12-19T06:01:34.498Z,11.53
2022-12-19T06:02:34.458Z,10.14
2022-12-19T06:03:34.311Z,10.93
2022-12-19T06:04:34.281Z,10.34
2022-12-19T06:05:34.278Z,10.74
2022-12-19T06:06:34.256Z,10.93
2022-12-19T06:07:34.248Z,9.94
2022-12-19T06:08:34.264Z,10.34
2022-12-19T06:09:34.233Z,11.33
2022-12-19T06:10:34.226Z,10.93
2022-12-19T06:11:34.215Z,10.34
2022-12-19T06:12:34.197Z,10.54
2022-12-19T06:13:34.205Z,9.94
2022-12-19T06:14:34.175Z,11.13
2022-12-19T06:15:34.164Z,11.13
2022-12-19T06:16:34.192Z,10.34
2022-12-19T06:17:34.172Z,10.74
2022-12-19T06:18:34.137Z,11.13
2022-12-19T06:19:34.133Z,11.13
2022-12-19T06:20:34.122Z,11.13
2022-12-19T06:21:34.109Z,10.54
2022-12-19T06:22:34.093Z,9.94
2022-12-19T06:23:34.092Z,9.74
2022-12-19T06:24:34.075Z,11.53
2022-12-19T06:25:34.051Z,9.94
2022-12-19T06:26:34.042Z,10.54
2022-12-19T06:27:34.032Z,9.34
2022-12-19T06:28:34.048Z,11.93
2022-12-19T06:29:34.052Z,10.74
2022-12-19T06:30:34.011Z,10.74
2022-12-19T06:31:34.017Z,11.13
2022-12-19T06:32:37.906Z,10.34
2022-12-19T06:33:33.995Z,10.93
2022-12-19T06:35:02.796Z,10.93
2022-12-19T06:35:34.949Z,10.34
2022-12-19T06:36:33.967Z,10.93
2022-12-19T06:37:35.965Z,9.34
2022-12-19T06:38:33.918Z,10.54
2022-12-19T06:39:33.908Z,10.54
2022-12-19T06:40:33.922Z,6.76
2022-12-19T06:41:33.890Z,9.94
2022-12-19T06:42:33.880Z,10.93
2022-12-19T06:43:33.871Z,10.74
2022-12-19T06:44:33.921Z,10.14
2022-12-19T06:45:33.895Z,10.93
2022-12-19T06:46:33.876Z,10.34
2022-12-19T06:47:33.827Z,10.74
2022-12-19T06:48:33.817Z,10.34
2022-12-19T06:49:33.837Z,10.93
2022-12-19T06:50:33.826Z,11.13
2022-12-19T06:51:33.794Z,9.54
2022-12-19T06:52:33.787Z,10.34
2022-12-19T06:53:33.821Z,10.54
2022-12-19T06:54:33.754Z,10.54
2022-12-19T06:55:33.765Z,10.34
2022-12-19T06:56:33.753Z,7.95
2022-12-19T06:57:33.722Z,10.93
2022-12-19T06:58:33.717Z,10.54
2022-12-19T06:59:33.703Z,11.93
2022-12-19T07:00:33.748Z,9.94
2022-12-19T07:01:33.768Z,10.74
2022-12-19T07:02:33.759Z,10.74
2022-12-19T07:03:33.688Z,9.74
2022-12-19T07:04:33.667Z,11.13
2022-12-19T07:05:33.721Z,11.73
2022-12-19T07:06:33.587Z,11.73
2022-12-19T07:07:33.621Z,10.74
2022-12-19T07:08:33.553Z,10.14
2022-12-19T07:09:33.533Z,10.34
2022-12-19T07:10:33.630Z,9.54
2022-12-19T07:11:33.569Z,10.93
2022-12-19T07:12:33.561Z,10.54
2022-12-19T07:13:33.503Z,10.74
2022-12-19T07:14:33.481Z,10.93
2022-12-19T07:15:33.476Z,10.93
2022-12-19T07:16:33.491Z,9.74
2022-12-19T07:17:33.451Z,11.13
2022-12-19T07:18:33.463Z,10.74
2022-12-19T07:19:33.436Z,10.93
2022-12-19T07:20:33.440Z,10.74
2022-12-19T07:21:33.402Z,11.13
2022-12-19T07:22:33.404Z,12.72
2022-12-19T07:23:33.396Z,10.93
2022-12-19T07:24:33.464Z,10.34
2022-12-19T07:25:33.417Z,10.93
2022-12-19T07:26:33.358Z,9.94
2022-12-19T07:27:35.879Z,12.13
2022-12-19T07:28:33.348Z,11.33
2022-12-19T07:29:33.322Z,10.34
2022-12-19T07:30:33.318Z,11.33
2022-12-19T07:31:33.371Z,10.93
2022-12-19T07:32:33.301Z,10.34
2022-12-19T07:33:33.294Z,10.34
2022-12-19T07:34:33.281Z,11.13
2022-12-19T07:35:33.289Z,11.33
2022-12-19T07:36:33.247Z,9.94
2022-12-19T07:37:33.243Z,10.74
2022-12-19T07:38:33.227Z,10.93
2022-12-19T07:39:33.217Z,11.73
2022-12-19T07:40:33.210Z,11.73
2022-12-19T07:41:33.205Z,11.53
2022-12-19T07:42:33.236Z,10.74
2022-12-19T07:43:33.187Z,11.33
2022-12-19T07:44:33.174Z,10.74
2022-12-19T07:45:33.202Z,11.13
2022-12-19T07:46:33.147Z,11.13
2022-12-19T07:47:33.141Z,9.94
2022-12-19T07:48:33.171Z,10.14
2022-12-19T07:49:33.114Z,11.33
2022-12-19T07:50:33.131Z,10.74
2022-12-19T07:51:33.097Z,10.93
2022-12-19T07:52:33.097Z,11.33
2022-12-19T07:53:33.078Z,11.13
2022-12-19T07:54:33.098Z,11.13
2022-12-19T07:55:33.106Z,10.54
2022-12-19T07:56:33.048Z,11.53
2022-12-19T07:57:33.037Z,10.54
2022-12-19T07:58:33.081Z,11.13
2022-12-19T07:59:38.791Z,11.13
2022-12-19T08:00:34.005Z,11.33
2022-12-19T08:01:33.095Z,10.54
2022-12-19T08:02:33.107Z,11.53
2022-12-19T08:03:32.966Z,10.74
2022-12-19T08:04:32.955Z,10.54
2022-12-19T08:05:32.944Z,9.54
2022-12-19T08:06:37.694Z,11.33
2022-12-19T08:07:33.941Z,11.33
2022-12-19T08:08:32.916Z,12.13
2022-12-19T08:09:32.902Z,10.93
2022-12-19T08:10:32.926Z,10.34
2022-12-19T08:11:32.895Z,11.13
2022-12-19T08:12:32.887Z,11.53
2022-12-19T08:13:37.946Z,10.74
2022-12-19T08:14:33.849Z,11.53
2022-12-19T08:15:32.839Z,11.93
2022-12-19T08:16:43.950Z,11.33
2022-12-19T08:17:33.923Z,11.93
2022-12-19T08:18:32.818Z,11.73
2022-12-19T08:19:32.801Z,10.34
2022-12-19T08:20:32.808Z,12.13
2022-12-19T08:21:32.771Z,10.74
2022-12-19T08:22:32.763Z,10.74
2022-12-19T08:23:32.870Z,11.53
2022-12-19T08:24:32.753Z,10.74
2022-12-19T08:25:32.729Z,11.53
2022-12-19T08:26:39.479Z,10.54
2022-12-19T08:27:33.710Z,11.53
2022-12-19T08:28:32.707Z,11.73
2022-12-19T08:29:32.714Z,11.33
2022-12-19T08:30:32.784Z,10.74
2022-12-19T08:31:32.688Z,11.13
2022-12-19T08:32:32.670Z,10.74
2022-12-19T08:33:32.651Z,11.33
2022-12-19T08:34:32.643Z,11.33
2022-12-19T08:35:32.659Z,11.33
2022-12-19T08:36:32.657Z,10.74
2022-12-19T08:37:32.730Z,10.93
2022-12-19T08:38:32.650Z,10.74
2022-12-19T08:39:32.837Z,11.13
2022-12-19T08:40:32.628Z,11.93
2022-12-19T08:41:32.667Z,10.74
2022-12-19T08:42:32.615Z,11.33
2022-12-19T08:43:32.692Z,10.93
2022-12-19T08:44:32.579Z,10.34
2022-12-19T08:45:32.720Z,11.93
2022-12-19T08:46:32.596Z,11.53
2022-12-19T08:47:32.556Z,10.34
2022-12-19T08:48:32.534Z,10.14
2022-12-19T08:49:32.544Z,12.72
2022-12-19T08:50:32.524Z,10.74
2022-12-19T08:51:32.536Z,10.14
2022-12-19T08:52:32.487Z,11.73
2022-12-19T08:53:32.490Z,11.53
2022-12-19T08:54:32.493Z,11.53
2022-12-19T08:55:32.485Z,11.13
2022-12-19T08:56:32.485Z,10.34
2022-12-19T08:57:32.448Z,10.93
2022-12-19T08:58:32.427Z,11.13
2022-12-19T08:59:32.528Z,10.74
2022-12-19T09:00:32.373Z,11.13
2022-12-19T09:01:32.535Z,11.93
2022-12-19T09:02:32.614Z,11.73
2022-12-19T09:03:42.791Z,11.13
2022-12-19T09:05:57.792Z,11.93
2022-12-19T09:06:03.750Z,10.74
2022-12-19T09:06:33.381Z,11.53
2022-12-19T09:07:32.299Z,11.93
2022-12-19T09:08:33.286Z,12.52
2022-12-19T09:09:32.307Z,11.53
2022-12-19T09:10:32.258Z,10.93
2022-12-19T09:11:32.297Z,11.53
2022-12-19T09:12:32.233Z,11.33
2022-12-19T09:13:32.251Z,11.33
2022-12-19T09:14:32.224Z,11.13
2022-12-19T09:15:32.222Z,11.33
2022-12-19T09:16:32.250Z,12.13
2022-12-19T09:17:32.195Z,11.53
2022-12-19T09:18:32.182Z,12.33
2022-12-19T09:19:32.210Z,11.13
2022-12-19T09:20:32.165Z,12.33
2022-12-19T09:21:32.171Z,11.53
2022-12-19T09:22:32.162Z,12.33
2022-12-19T09:23:32.125Z,7.95
2022-12-19T09:24:32.112Z,11.13
2022-12-19T09:25:32.109Z,10.54
2022-12-19T09:26:32.916Z,11.73
2022-12-19T09:27:47.422Z,11.53
2022-12-19T09:28:33.065Z,12.13
2022-12-19T09:29:35.304Z,11.93
2022-12-19T09:30:32.107Z,11.33
2022-12-19T09:31:32.086Z,11.73
2022-12-19T09:32:32.032Z,12.72
2022-12-19T09:33:33.051Z,12.33
2022-12-19T09:34:37.970Z,11.33
2022-12-19T09:35:32.990Z,11.53
2022-12-19T09:36:31.991Z,11.53
2022-12-19T09:37:31.962Z,11.53
2022-12-19T09:38:32.013Z,11.13
2022-12-19T09:39:32.009Z,12.33
2022-12-19T09:40:32.077Z,11.73
2022-12-19T09:41:31.994Z,12.13
2022-12-19T09:42:31.930Z,11.73
2022-12-19T09:43:38.032Z,11.93
2022-12-19T09:44:32.880Z,11.93
2022-12-19T09:45:33.120Z,11.73
2022-12-19T09:46:32.058Z,10.34
2022-12-19T09:47:32.027Z,10.93
2022-12-19T09:48:31.850Z,11.53
2022-12-19T09:49:31.863Z,11.73
2022-12-19T09:50:31.862Z,11.53
2022-12-19T09:51:31.905Z,11.33
2022-12-19T09:52:33.173Z,11.93
2022-12-19T09:53:31.795Z,11.33
2022-12-19T09:54:31.787Z,12.72
2022-12-19T09:55:31.791Z,11.53
2022-12-19T09:56:33.972Z,11.33
2022-12-19T09:57:32.802Z,10.74
2022-12-19T09:58:31.765Z,11.33
2022-12-19T09:59:41.317Z,11.33
2022-12-19T10:00:32.719Z,13.52
2022-12-19T10:01:31.817Z,11.93
2022-12-19T10:02:31.890Z,11.13
2022-12-19T10:03:33.515Z,12.13
2022-12-19T10:04:32.731Z,11.93
2022-12-19T10:06:05.001Z,11.73
2022-12-19T10:07:22.149Z,10.93
2022-12-19T10:07:54.704Z,11.33
2022-12-19T10:08:32.638Z,12.92
2022-12-19T10:10:57.656Z,11.73
2022-12-19T10:12:39.258Z,12.13
2022-12-19T10:12:43.503Z,10.54
2022-12-19T10:12:47.230Z,11.33
2022-12-19T10:13:32.589Z,11.13
2022-12-19T10:14:31.596Z,10.93
2022-12-19T10:15:31.600Z,11.53
2022-12-19T10:16:31.629Z,10.74
2022-12-19T10:17:31.588Z,11.53
2022-12-19T10:18:31.523Z,12.52
2022-12-19T10:19:31.526Z,12.13
2022-12-19T10:20:31.507Z,11.73
2022-12-19T10:21:59.109Z,11.33
2022-12-19T10:22:32.475Z,11.93
2022-12-19T10:23:31.483Z,11.93
2022-12-19T10:24:35.212Z,12.33
2022-12-19T10:25:31.457Z,11.13
2022-12-19T10:26:31.454Z,11.73
2022-12-19T10:27:31.460Z,11.73
2022-12-19T10:28:31.433Z,11.33
2022-12-19T10:29:31.611Z,12.33
2022-12-19T10:30:31.998Z,11.93
2022-12-19T10:31:31.504Z,11.93
2022-12-19T10:32:31.376Z,10.74
2022-12-19T10:33:31.358Z,11.53
2022-12-19T10:34:31.352Z,11.33
2022-12-19T10:35:31.361Z,11.33
2022-12-19T10:37:04.731Z,10.74
2022-12-19T10:37:43.598Z,12.92
2022-12-19T10:38:32.311Z,11.73
2022-12-19T10:39:31.305Z,10.93
2022-12-19T10:40:31.288Z,11.33
2022-12-19T10:41:31.279Z,11.53
2022-12-19T10:42:31.275Z,13.72
2022-12-19T10:43:35.595Z,12.13
2022-12-19T10:44:32.489Z,10.14
2022-12-19T10:45:31.335Z,12.52
2022-12-19T10:46:31.361Z,11.73
2022-12-19T10:47:31.220Z,12.13
2022-12-19T10:48:31.728Z,12.52
2022-12-19T10:49:31.194Z,12.33
2022-12-19T10:50:31.178Z,11.73
2022-12-19T10:51:31.200Z,11.53
2022-12-19T10:52:31.196Z,12.13
2022-12-19T10:53:31.153Z,11.53
2022-12-19T10:54:33.709Z,11.93
2022-12-19T10:55:31.154Z,11.33
2022-12-19T10:56:37.059Z,12.13
2022-12-19T10:57:32.122Z,11.73
2022-12-19T10:58:31.120Z,12.33
2022-12-19T10:59:31.086Z,12.13
2022-12-19T11:00:32.985Z,11.93
2022-12-19T11:01:31.181Z,12.13
2022-12-19T11:02:31.166Z,11.93
2022-12-19T11:03:31.267Z,11.73
2022-12-19T11:04:31.061Z,11.53
2022-12-19T11:05:31.144Z,11.93
2022-12-19T11:06:31.025Z,11.53
2022-12-19T11:07:31.001Z,11.93
2022-12-19T11:08:31.011Z,13.52
2022-12-19T11:09:31.021Z,11.93
2022-12-19T11:11:12.629Z,12.13
2022-12-19T11:13:05.620Z,12.33
2022-12-19T11:16:38.245Z,11.93
2022-12-19T11:18:06.019Z,10.74
2022-12-19T11:18:48.314Z,12.33
2022-12-19T11:19:53.586Z,12.33
2022-12-19T11:21:26.911Z,11.93
2022-12-19T11:26:08.329Z,11.73
2022-12-19T11:27:06.588Z,12.92
2022-12-19T11:28:58.455Z,12.33
2022-12-19T11:29:25.719Z,11.93
2022-12-19T11:29:27.492Z,11.53
2022-12-19T11:29:30.356Z,11.33
2022-12-19T11:29:34.083Z,11.33
2022-12-19T11:30:21.356Z,11.93
2022-12-19T11:30:26.092Z,11.13
2022-12-19T11:30:26.147Z,12.72
2022-12-19T11:30:37.986Z,12.72
2022-12-19T11:30:48.857Z,12.13
2022-12-19T11:31:29.642Z,12.13
2022-12-19T11:32:40.183Z,12.52
2022-12-19T11:33:31.789Z,11.53
2022-12-19T11:34:30.701Z,11.53
2022-12-19T11:35:37.255Z,11.53
2022-12-19T11:36:31.674Z,12.33
2022-12-19T11:37:30.668Z,11.33
2022-12-19T11:38:30.649Z,10.93
2022-12-19T11:39:30.640Z,12.13
2022-12-19T11:40:30.639Z,11.73
2022-12-19T11:41:30.619Z,11.93
2022-12-19T11:42:30.620Z,11.53
2022-12-19T11:43:46.853Z,11.53
2022-12-19T11:44:31.660Z,12.52
2022-12-19T11:45:30.582Z,12.33
2022-12-19T11:46:30.581Z,13.52
2022-12-19T11:47:30.577Z,12.13
2022-12-19T11:48:30.703Z,12.33
2022-12-19T11:49:30.562Z,11.73
2022-12-19T11:50:30.522Z,12.13
2022-12-19T11:51:30.523Z,12.72
2022-12-19T11:53:02.881Z,11.73
2022-12-19T11:53:31.506Z,12.33
2022-12-19T11:54:30.499Z,13.12
2022-12-19T11:55:30.494Z,11.73
2022-12-19T11:56:30.468Z,12.33
2022-12-19T11:57:30.439Z,13.12
2022-12-19T11:58:30.455Z,13.12
2022-12-19T11:59:30.444Z,12.33
2022-12-19T12:00:30.438Z,12.13
2022-12-19T12:01:30.460Z,11.93
2022-12-19T12:02:30.378Z,12.33
2022-12-19T12:03:30.553Z,11.53
2022-12-19T12:04:30.465Z,12.92
2022-12-19T12:05:30.389Z,12.92
2022-12-19T12:06:31.707Z,12.33
2022-12-19T12:09:15.524Z,12.13
2022-12-19T12:11:13.828Z,12.72
2022-12-19T12:13:31.290Z,12.33
2022-12-19T12:13:56.803Z,12.92
2022-12-19T12:14:30.400Z,12.72
2022-12-19T12:17:34.870Z,12.52
2022-12-19T12:24:20.056Z,12.13
2022-12-19T12:24:27.361Z,11.73
2022-12-19T12:27:31.116Z,12.92
2022-12-19T12:27:48.181Z,11.13
2022-12-19T12:31:04.066Z,12.13
2022-12-19T12:31:04.927Z,12.52
2022-12-19T12:31:10.766Z,11.13
2022-12-19T12:31:14.531Z,11.93
2022-12-19T12:31:15.117Z,11.93
2022-12-19T12:31:17.155Z,13.12
2022-12-19T12:31:17.979Z,12.13
2022-12-19T12:31:19.239Z,12.33
2022-12-19T12:31:19.470Z,12.72
2022-12-19T12:31:30.604Z,12.52
2022-12-19T12:31:44.722Z,11.93
2022-12-19T12:31:46.189Z,11.93
2022-12-19T12:31:49.079Z,11.53
2022-12-19T12:31:56.044Z,12.33
2022-12-19T12:35:46.744Z,12.92
2022-12-19T12:35:51.514Z,13.12
2022-12-19T12:35:55.108Z,12.13
2022-12-19T12:38:31.666Z,11.93
2022-12-19T12:39:33.707Z,12.52
2022-12-19T12:40:29.968Z,12.13
2022-12-19T12:41:29.966Z,12.92
2022-12-19T12:42:29.948Z,12.52
2022-12-19T12:43:29.960Z,12.13
2022-12-19T12:44:32.830Z,12.92
2022-12-19T12:45:29.984Z,12.72
2022-12-19T12:46:29.925Z,12.92
2022-12-19T12:47:29.889Z,12.72
2022-12-19T12:48:29.883Z,13.72
2022-12-19T12:49:29.906Z,13.32
2022-12-19T12:50:29.904Z,13.32
2022-12-19T12:51:29.945Z,12.72
2022-12-19T12:52:29.836Z,13.12
2022-12-19T12:53:29.841Z,12.33
2022-12-19T12:54:29.815Z,12.33
2022-12-19T12:55:29.826Z,11.73
2022-12-19T12:56:29.801Z,11.93
2022-12-19T12:57:30.112Z,11.93
2022-12-19T12:58:29.794Z,13.32
2022-12-19T12:59:29.774Z,12.52
2022-12-19T13:00:29.766Z,12.52
2022-12-19T13:01:29.919Z,11.53
2022-12-19T13:02:29.848Z,13.12
2022-12-19T13:03:29.762Z,13.12
2022-12-19T13:04:29.767Z,13.32
2022-12-19T13:05:29.693Z,13.32
2022-12-19T13:06:29.737Z,13.12
2022-12-19T13:07:29.691Z,12.92
2022-12-19T13:08:29.673Z,12.52